createdAt,value
2022-11-20T00:00:17.968Z,99522.06
2022-11-20T00:02:44.674Z,99515.13
2022-11-20T00:05:11.401Z,99512.06
2022-11-20T00:07:38.178Z,99512.91
2022-11-20T00:10:05.240Z,99515.53
2022-11-20T00:12:32.331Z,99511.09
2022-11-20T00:14:59.028Z,99514.16
2022-11-20T00:17:25.762Z,99510.06
2022-11-20T00:19:52.389Z,99516.81
2022-11-20T00:22:19.067Z,99513.44
2022-11-20T00:24:45.707Z,99514.25
2022-11-20T00:27:12.368Z,99524.06
2022-11-20T00:29:39.219Z,99515.44
2022-11-20T00:32:05.959Z,99514.25
2022-11-20T00:34:32.631Z,99507.25
2022-11-20T00:36:59.282Z,99505.66
2022-11-20T00:39:25.944Z,99514.38
2022-11-20T00:41:52.611Z,99514.25
2022-11-20T00:44:19.324Z,99513.34
2022-11-20T00:46:45.964Z,99517.22
2022-11-20T00:49:12.663Z,99509.22
2022-11-20T00:51:39.429Z,99515.84
2022-11-20T00:54:06.064Z,99515.13
2022-11-20T00:56:32.753Z,99516.06
2022-11-20T00:59:01.257Z,99525.66
2022-11-20T01:01:30.231Z,99521.09
2022-11-20T01:04:00.315Z,99515.84
2022-11-20T01:06:28.137Z,99515.97
2022-11-20T01:08:57.745Z,99513.22
2022-11-20T01:11:27.656Z,99515.97
2022-11-20T01:13:55.407Z,99512.69
2022-11-20T01:16:24.772Z,99505.44
2022-11-20T01:18:53.647Z,99511.75
2022-11-20T01:21:25.839Z,99511.84
2022-11-20T01:23:53.014Z,99509.13
2022-11-20T01:26:22.465Z,99506.50
2022-11-20T01:28:49.271Z,99515.53
2022-11-20T01:31:22.845Z,99508.59
2022-11-20T01:33:51.455Z,99514.25
2022-11-20T01:36:19.331Z,99513.34
2022-11-20T01:38:46.215Z,99513.03
2022-11-20T01:41:35.123Z,99507.88
2022-11-20T01:44:03.821Z,99507.88
2022-11-20T01:46:34.670Z,99510.41
2022-11-20T01:49:17.847Z,99510.72
2022-11-20T01:52:00.873Z,99506.59
2022-11-20T01:54:34.612Z,99512.38
2022-11-20T01:57:01.821Z,99507.78
2022-11-20T01:59:29.461Z,99505.03
2022-11-20T02:01:56.260Z,99508.41
2022-11-20T02:04:23.731Z,99504.84
2022-11-20T02:06:55.027Z,99505.66
2022-11-20T02:09:21.781Z,99501.34
2022-11-20T02:11:48.526Z,99503.03
2022-11-20T02:14:15.715Z,99500.41
2022-11-20T02:16:46.695Z,99496.53
2022-11-20T02:19:29.188Z,99495.25
2022-11-20T02:22:15.579Z,99493.88
2022-11-20T02:24:43.456Z,99495.34
2022-11-20T02:27:13.461Z,99499.75
2022-11-20T02:29:52.183Z,99490.94
2022-11-20T02:32:21.814Z,99488.19
2022-11-20T02:34:48.573Z,99483.81
2022-11-20T02:37:15.637Z,99480.53
2022-11-20T02:39:42.684Z,99483.69
2022-11-20T02:42:09.479Z,99481.78
2022-11-20T02:44:36.326Z,99476.84
2022-11-20T02:47:03.142Z,99482.75
2022-11-20T02:49:29.828Z,99475.59
2022-11-20T02:51:56.534Z,99478.34
2022-11-20T02:54:23.974Z,99476.53
2022-11-20T02:56:50.922Z,99476.63
2022-11-20T02:59:17.817Z,99474.75
2022-11-20T03:01:44.666Z,99473.06
2022-11-20T03:04:11.478Z,99477.38
2022-11-20T03:06:38.275Z,99470.97
2022-11-20T03:09:05.128Z,99470.22
2022-11-20T03:11:32.004Z,99464.00
2022-11-20T03:13:58.846Z,99470.13
2022-11-20T03:16:25.605Z,99463.19
2022-11-20T03:18:53.644Z,99465.81
2022-11-20T03:21:20.463Z,99464.97
2022-11-20T03:23:47.409Z,99459.81
2022-11-20T03:26:19.801Z,99464.22
2022-11-20T03:28:54.432Z,99462.88
2022-11-20T03:31:24.038Z,99465.50
2022-11-20T03:33:51.278Z,99459.63
2022-11-20T03:36:19.424Z,99465.19
2022-11-20T03:38:46.575Z,99454.78
2022-11-20T03:41:22.682Z,99454.16
2022-11-20T03:43:50.674Z,99458.66
2022-11-20T03:46:17.863Z,99458.34
2022-11-20T03:48:50.163Z,99456.66
2022-11-20T03:51:27.152Z,99456.25
2022-11-20T03:53:55.848Z,99464.53
2022-11-20T03:56:27.874Z,99454.47
2022-11-20T03:58:54.629Z,99455.81
2022-11-20T04:01:23.265Z,99462.22
2022-11-20T04:03:50.471Z,99460.47
2022-11-20T04:06:19.848Z,99452.56
2022-11-20T04:08:50.996Z,99453.41
2022-11-20T04:11:27.819Z,99453.63
2022-11-20T04:13:56.549Z,99456.34
2022-11-20T04:16:24.719Z,99460.34
2022-11-20T04:18:55.819Z,99454.69
2022-11-20T04:21:23.276Z,99455.22
2022-11-20T04:23:52.023Z,99454.16
2022-11-20T04:26:18.692Z,99448.69
2022-11-20T04:28:45.342Z,99449.41
2022-11-20T04:31:15.106Z,99453.28
2022-11-20T04:33:41.864Z,99444.47
2022-11-20T04:36:19.722Z,99443.81
2022-11-20T04:38:46.806Z,99438.47
2022-11-20T04:41:18.057Z,99444.56
2022-11-20T04:43:52.217Z,99438.16
2022-11-20T04:46:20.528Z,99444.91
2022-11-20T04:48:48.208Z,99444.69
2022-11-20T04:51:14.870Z,99442.06
2022-11-20T04:53:41.551Z,99441.94
2022-11-20T04:56:10.065Z,99438.38
2022-11-20T04:58:36.888Z,99442.88
2022-11-20T05:01:05.082Z,99443.31
2022-11-20T05:03:31.961Z,99441.63
2022-11-20T05:06:03.495Z,99440.88
2022-11-20T05:08:31.188Z,99438.56
2022-11-20T05:11:05.789Z,99443.72
2022-11-20T05:13:32.739Z,99436.81
2022-11-20T05:16:08.003Z,99434.50
2022-11-20T05:18:35.575Z,99428.69
2022-11-20T05:21:02.419Z,99429.63
2022-11-20T05:23:30.392Z,99433.22
2022-11-20T05:25:59.433Z,99426.28
2022-11-20T05:28:27.617Z,99418.19
2022-11-20T05:30:54.384Z,99416.91
2022-11-20T05:33:21.306Z,99415.75
2022-11-20T05:35:48.998Z,99418.16
2022-11-20T05:38:15.934Z,99410.81
2022-11-20T05:40:42.571Z,99418.47
2022-11-20T05:43:09.307Z,99415.84
2022-11-20T05:45:36.148Z,99411.41
2022-11-20T05:48:02.914Z,99407.63
2022-11-20T05:50:29.596Z,99394.16
2022-11-20T05:52:59.381Z,99401.72
2022-11-20T05:55:26.520Z,99400.66
2022-11-20T05:57:54.951Z,99405.56
2022-11-20T06:00:21.741Z,99417.81
2022-11-20T06:02:48.605Z,99412.63
2022-11-20T06:05:15.392Z,99418.34
2022-11-20T06:07:42.291Z,99421.06
2022-11-20T06:10:09.353Z,99421.19
2022-11-20T06:12:36.032Z,99417.84
2022-11-20T06:15:02.681Z,99425.72
2022-11-20T06:17:29.404Z,99422.34
2022-11-20T06:19:56.065Z,99413.63
2022-11-20T06:22:22.796Z,99415.19
2022-11-20T06:24:49.534Z,99411.59
2022-11-20T06:27:16.753Z,99413.41
2022-11-20T06:29:43.439Z,99416.13
2022-11-20T06:32:10.120Z,99416.78
2022-11-20T06:34:36.809Z,99415.72
2022-11-20T06:37:03.619Z,99416.56
2022-11-20T06:39:30.497Z,99413.69
2022-11-20T06:41:59.270Z,99419.19
2022-11-20T06:44:26.467Z,99413.81
2022-11-20T06:46:53.120Z,99414.44
2022-11-20T06:49:20.090Z,99419.91
2022-11-20T06:51:47.020Z,99418.94
2022-11-20T06:54:13.851Z,99418.72
2022-11-20T06:56:40.617Z,99417.81
2022-11-20T06:59:08.046Z,99415.78
2022-11-20T07:01:35.878Z,99415.56
2022-11-20T07:04:03.997Z,99414.50
2022-11-20T07:06:31.009Z,99400.41
2022-11-20T07:08:57.916Z,99400.28
2022-11-20T07:11:24.760Z,99404.59
2022-11-20T07:13:51.652Z,99402.72
2022-11-20T07:16:18.356Z,99409.97
2022-11-20T07:18:50.128Z,99410.81
2022-11-20T07:21:17.643Z,99400.19
2022-11-20T07:23:44.511Z,99405.34
2022-11-20T07:26:12.045Z,99424.59
2022-11-20T07:28:39.276Z,99420.91
2022-11-20T07:31:07.770Z,99425.53
2022-11-20T07:33:34.724Z,99414.16
2022-11-20T07:36:01.568Z,99407.09
2022-11-20T07:38:28.468Z,99408.69
2022-11-20T07:40:56.716Z,99412.03
2022-11-20T07:43:23.404Z,99418.88
2022-11-20T07:45:50.112Z,99416.16
2022-11-20T07:48:16.886Z,99415.91
2022-11-20T07:50:43.557Z,99415.69
2022-11-20T07:53:10.303Z,99420.84
2022-11-20T07:55:37.091Z,99413.69
2022-11-20T07:58:03.756Z,99419.66
2022-11-20T08:00:30.499Z,99409.03
2022-11-20T08:02:57.251Z,99411.34
2022-11-20T08:05:24.284Z,99411.00
2022-11-20T08:07:50.982Z,99409.81
2022-11-20T08:10:17.999Z,99413.91
2022-11-20T08:13:08.156Z,99415.38
2022-11-20T08:15:35.174Z,99410.81
2022-11-20T08:18:30.570Z,99415.16
2022-11-20T08:20:58.782Z,99419.13
2022-11-20T08:23:25.474Z,99422.47
2022-11-20T08:25:52.392Z,99422.25
2022-11-20T08:28:21.681Z,99412.44
2022-11-20T08:30:50.761Z,99418.44
2022-11-20T08:33:18.468Z,99433.19
2022-11-20T08:35:45.265Z,99426.22
2022-11-20T08:38:11.935Z,99419.88
2022-11-20T08:40:38.704Z,99431.88
2022-11-20T08:43:05.474Z,99429.00
2022-11-20T08:45:34.742Z,99430.56
2022-11-20T08:48:05.039Z,99431.41
2022-11-20T08:50:32.997Z,99437.31
2022-11-20T08:53:06.778Z,99435.75
2022-11-20T08:55:33.541Z,99439.81
2022-11-20T08:58:04.677Z,99434.44
2022-11-20T09:00:31.441Z,99441.38
2022-11-20T09:02:59.541Z,99439.56
2022-11-20T09:05:26.246Z,99444.34
2022-11-20T09:07:52.989Z,99446.53
2022-11-20T09:10:25.568Z,99444.63
2022-11-20T09:12:53.154Z,99449.78
2022-11-20T09:15:20.187Z,99452.31
2022-11-20T09:17:57.810Z,99451.47
2022-11-20T09:20:24.956Z,99449.44
2022-11-20T09:22:51.591Z,99444.91
2022-11-20T09:25:18.539Z,99446.69
2022-11-20T09:27:46.961Z,99457.09
2022-11-20T09:30:17.078Z,99447.28
2022-11-20T09:32:44.127Z,99456.03
2022-11-20T09:35:11.580Z,99449.81
2022-11-20T09:37:38.705Z,99455.81
2022-11-20T09:40:05.980Z,99451.41
2022-11-20T09:42:42.790Z,99461.22
2022-11-20T09:45:37.303Z,99453.41
2022-11-20T09:48:19.760Z,99454.38
2022-11-20T09:50:57.312Z,99462.13
2022-11-20T09:54:01.291Z,99473.66
2022-11-20T09:56:27.852Z,99466.31
2022-11-20T09:59:01.015Z,99456.88
2022-11-20T10:01:31.501Z,99457.63
2022-11-20T10:04:07.214Z,99455.81
2022-11-20T10:06:38.542Z,99453.69
2022-11-20T10:09:11.228Z,99459.09
2022-11-20T10:12:04.093Z,99463.72
2022-11-20T10:14:52.194Z,99462.47
2022-11-20T10:17:54.321Z,99456.56
2022-11-20T10:20:31.808Z,99453.69
2022-11-20T10:23:25.367Z,99458.13
2022-11-20T10:26:03.193Z,99456.94
2022-11-20T10:28:52.622Z,99459.69
2022-11-20T10:31:32.868Z,99456.94
2022-11-20T10:34:12.164Z,99461.97
2022-11-20T10:36:47.077Z,99459.44
2022-11-20T10:39:47.406Z,99449.88
2022-11-20T10:42:17.381Z,99448.56
2022-11-20T10:45:05.841Z,99448.69
2022-11-20T10:47:33.562Z,99444.84
2022-11-20T10:50:05.601Z,99444.84
2022-11-20T10:52:50.581Z,99438.75
2022-11-20T10:55:29.157Z,99441.28
2022-11-20T10:58:02.749Z,99434.94
2022-11-20T11:00:32.157Z,99430.25
2022-11-20T11:03:03.802Z,99430.13
2022-11-20T11:05:38.943Z,99430.25
2022-11-20T11:08:11.612Z,99425.59
2022-11-20T11:10:57.185Z,99438.06
2022-11-20T11:13:26.055Z,99420.91
2022-11-20T11:15:53.455Z,99425.09
2022-11-20T11:18:31.544Z,99420.81
2022-11-20T11:21:00.381Z,99425.00
2022-11-20T11:23:33.296Z,99407.38
2022-11-20T11:26:02.204Z,99409.66
2022-11-20T11:28:29.351Z,99407.72
2022-11-20T11:30:56.823Z,99396.22
2022-11-20T11:33:28.184Z,99395.25
2022-11-20T11:36:05.680Z,99402.34
2022-11-20T11:38:39.509Z,99393.34
2022-11-20T11:41:08.501Z,99396.81
2022-11-20T11:43:55.786Z,99381.81
2022-11-20T11:46:31.748Z,99376.69
2022-11-20T11:49:17.645Z,99382.81
2022-11-20T11:52:09.597Z,99373.56
2022-11-20T11:54:38.366Z,99372.94
2022-11-20T11:57:43.426Z,99376.56
2022-11-20T12:00:13.419Z,99365.41
2022-11-20T12:02:51.504Z,99368.28
2022-11-20T12:05:27.234Z,99360.25
2022-11-20T12:08:00.104Z,99359.03
2022-11-20T12:10:50.340Z,99366.13
2022-11-20T12:13:34.297Z,99374.50
2022-11-20T12:16:02.123Z,99370.53
2022-11-20T12:18:29.682Z,99378.31
2022-11-20T12:21:25.749Z,99377.00
2022-11-20T12:24:14.285Z,99381.81
2022-11-20T12:26:53.723Z,99376.06
2022-11-20T12:29:42.215Z,99372.09
2022-11-20T12:32:30.013Z,99371.25
2022-11-20T12:35:33.217Z,99361.78
2022-11-20T12:38:20.930Z,99370.53
2022-11-20T12:40:53.747Z,99361.53
2022-11-20T12:43:41.338Z,99366.56
2022-11-20T12:46:30.742Z,99360.81
2022-11-20T12:49:10.483Z,99364.44
2022-11-20T12:51:51.541Z,99366.22
2022-11-20T12:54:34.721Z,99364.91
2022-11-20T12:57:22.274Z,99366.81
2022-11-20T13:00:08.207Z,99371.38
2022-11-20T13:03:08.779Z,99373.28
2022-11-20T13:05:38.152Z,99366.66
2022-11-20T13:08:05.231Z,99362.13
2022-11-20T13:10:34.806Z,99356.00
2022-11-20T13:13:09.848Z,99360.44
2022-11-20T13:15:59.347Z,99347.00
2022-11-20T13:18:26.361Z,99351.09
2022-11-20T13:20:53.318Z,99339.44
2022-11-20T13:23:28.498Z,99337.75
2022-11-20T13:26:21.956Z,99334.38
2022-11-20T13:29:00.279Z,99335.56
2022-11-20T13:31:32.639Z,99332.00
2022-11-20T13:34:01.250Z,99326.34
2022-11-20T13:36:29.846Z,99317.44
2022-11-20T13:38:57.035Z,99318.00
2022-11-20T13:41:32.088Z,99326.91
2022-11-20T13:44:16.521Z,99327.16
2022-11-20T13:46:47.852Z,99324.16
2022-11-20T13:49:22.707Z,99315.25
2022-11-20T13:51:51.637Z,99318.75
2022-11-20T13:54:48.483Z,99319.00
2022-11-20T13:57:29.290Z,99315.53
2022-11-20T13:59:59.566Z,99312.50
2022-11-20T14:02:28.742Z,99322.09
2022-11-20T14:04:58.441Z,99313.19
2022-11-20T14:07:32.783Z,99317.53
2022-11-20T14:09:59.486Z,99310.44
2022-11-20T14:12:32.127Z,99308.63
2022-11-20T14:14:59.104Z,99312.72
2022-11-20T14:17:35.230Z,99308.25
2022-11-20T14:20:07.843Z,99310.78
2022-11-20T14:22:34.564Z,99318.72
2022-11-20T14:25:19.189Z,99310.69
2022-11-20T14:27:49.960Z,99314.38
2022-11-20T14:30:18.682Z,99312.44
2022-11-20T14:32:46.412Z,99314.97
2022-11-20T14:35:23.068Z,99305.50
2022-11-20T14:37:49.758Z,99300.06
2022-11-20T14:40:27.447Z,99305.72
2022-11-20T14:42:54.491Z,99306.59
2022-11-20T14:45:22.508Z,99297.97
2022-11-20T14:47:49.843Z,99295.16
2022-11-20T14:50:30.503Z,99302.78
2022-11-20T14:52:59.478Z,99297.13
2022-11-20T14:55:32.362Z,99297.34
2022-11-20T14:58:04.425Z,99301.69
2022-11-20T15:00:32.109Z,99303.34
2022-11-20T15:02:59.357Z,99298.22
2022-11-20T15:05:45.703Z,99298.34
2022-11-20T15:08:13.279Z,99293.31
2022-11-20T15:10:40.166Z,99287.44
2022-11-20T15:13:13.214Z,99295.59
2022-11-20T15:15:45.600Z,99297.41
2022-11-20T15:18:20.820Z,99287.81
2022-11-20T15:20:47.849Z,99285.06
2022-11-20T15:23:16.832Z,99279.19
2022-11-20T15:25:43.657Z,99283.75
2022-11-20T15:28:19.440Z,99281.59
2022-11-20T15:30:47.504Z,99281.59
2022-11-20T15:33:14.914Z,99281.75
2022-11-20T15:35:41.677Z,99285.34
2022-11-20T15:40:34.757Z,99275.53
2022-11-20T15:42:32.615Z,99273.47
2022-11-20T15:44:59.393Z,99267.38
2022-11-20T15:47:29.249Z,99257.66
2022-11-20T15:49:55.957Z,99263.91
2022-11-20T15:52:22.874Z,99259.34
2022-11-20T15:54:49.557Z,99261.00
2022-11-20T15:57:16.336Z,99265.31
2022-11-20T15:59:43.202Z,99266.28
2022-11-20T16:02:17.525Z,99271.56
2022-11-20T16:04:45.774Z,99259.47
2022-11-20T16:07:12.592Z,99260.28
2022-11-20T16:09:39.291Z,99266.53
2022-11-20T16:12:06.348Z,99262.34
2022-11-20T16:14:51.673Z,99263.19
2022-11-20T16:17:38.328Z,99262.63
2022-11-20T16:20:05.437Z,99257.34
2022-11-20T16:22:32.127Z,99255.53
2022-11-20T16:24:58.805Z,99250.25
2022-11-20T16:27:25.514Z,99257.06
2022-11-20T16:29:52.252Z,99255.28
2022-11-20T16:32:18.895Z,99249.88
2022-11-20T16:34:45.612Z,99248.91
2022-11-20T16:37:12.359Z,99247.09
2022-11-20T16:39:39.160Z,99245.44
2022-11-20T16:42:06.088Z,99250.56
2022-11-20T16:44:32.793Z,99242.66
2022-11-20T16:46:59.586Z,99237.38
2022-11-20T16:49:26.292Z,99245.28
2022-11-20T16:51:53.191Z,99234.72
2022-11-20T16:54:21.427Z,99240.00
2022-11-20T16:56:48.318Z,99240.16
2022-11-20T16:59:15.171Z,99230.94
2022-11-20T17:01:43.163Z,99241.34
2022-11-20T17:04:10.232Z,99235.38
2022-11-20T17:06:40.449Z,99236.22
2022-11-20T17:09:10.681Z,99226.63
2022-11-20T17:11:37.440Z,99225.78
2022-11-20T17:14:07.352Z,99224.97
2022-11-20T17:16:35.049Z,99223.97
2022-11-20T17:19:03.539Z,99222.16
2022-11-20T17:21:36.220Z,99222.31
2022-11-20T17:24:04.818Z,99223.25
2022-11-20T17:26:32.014Z,99223.97
2022-11-20T17:29:01.094Z,99225.66
2022-11-20T17:31:29.479Z,99221.22
2022-11-20T17:33:56.583Z,99211.63
2022-11-20T17:36:23.258Z,99218.59
2022-11-20T17:38:50.026Z,99219.31
2022-11-20T17:41:22.488Z,99215.94
2022-11-20T17:43:49.849Z,99215.69
2022-11-20T17:46:18.877Z,99212.06
2022-11-20T17:48:46.246Z,99216.41
2022-11-20T17:51:15.452Z,99212.78
2022-11-20T17:53:44.528Z,99202.25
2022-11-20T17:56:29.792Z,99196.00
2022-11-20T17:58:56.814Z,99189.88
2022-11-20T18:01:24.116Z,99182.69
2022-11-20T18:03:50.922Z,99181.84
2022-11-20T18:06:20.011Z,99184.38
2022-11-20T18:08:47.386Z,99186.03
2022-11-20T18:11:25.277Z,99188.09
2022-11-20T18:14:12.672Z,99187.69
2022-11-20T18:16:44.104Z,99190.47
2022-11-20T18:19:12.132Z,99179.66
2022-11-20T18:21:38.945Z,99176.19
2022-11-20T18:24:08.689Z,99181.47
2022-11-20T18:26:38.786Z,99180.63
2022-11-20T18:29:09.838Z,99175.34
2022-11-20T18:31:36.633Z,99183.28
2022-11-20T18:34:03.603Z,99178.81
2022-11-20T18:36:31.149Z,99170.19
2022-11-20T18:38:59.943Z,99158.53
2022-11-20T18:41:47.033Z,99159.53
2022-11-20T18:44:40.399Z,99158.22
2022-11-20T18:47:14.065Z,99153.66
2022-11-20T18:49:54.654Z,99157.25
2022-11-20T18:52:29.600Z,99153.78
2022-11-20T18:54:56.740Z,99151.84
2022-11-20T18:57:25.837Z,99151.00
2022-11-20T18:59:56.372Z,99146.72
2022-11-20T19:02:23.320Z,99142.00
2022-11-20T19:04:50.132Z,99138.41
2022-11-20T19:07:17.216Z,99129.63
2022-11-20T19:09:47.745Z,99137.56
2022-11-20T19:12:14.584Z,99141.06
2022-11-20T19:14:41.300Z,99140.06
2022-11-20T19:17:10.262Z,99136.44
2022-11-20T19:19:37.211Z,99124.13
2022-11-20T19:22:04.407Z,99113.56
2022-11-20T19:24:31.380Z,99117.88
2022-11-20T19:26:58.201Z,99100.50
2022-11-20T19:29:25.608Z,99110.94
2022-11-20T19:31:53.214Z,99114.66
2022-11-20T19:34:20.033Z,99112.97
2022-11-20T19:36:46.766Z,99108.53
2022-11-20T19:39:14.786Z,99109.63
2022-11-20T19:41:41.792Z,99104.59
2022-11-20T19:44:12.447Z,99114.06
2022-11-20T19:46:39.494Z,99113.13
2022-11-20T19:49:10.054Z,99111.31
2022-11-20T19:51:39.353Z,99109.50
2022-11-20T19:54:06.472Z,99112.25
2022-11-20T19:56:33.960Z,99112.97
2022-11-20T19:59:00.748Z,99105.19
2022-11-20T20:01:29.779Z,99102.41
2022-11-20T20:04:01.258Z,99103.13
2022-11-20T20:06:28.652Z,99100.50
2022-11-20T20:08:57.151Z,99097.13
2022-11-20T20:11:25.827Z,99095.31
2022-11-20T20:13:53.448Z,99092.13
2022-11-20T20:16:21.759Z,99098.94
2022-11-20T20:18:48.510Z,99106.16
2022-11-20T20:21:18.650Z,99095.59
2022-11-20T20:23:45.760Z,99107.69
2022-11-20T20:26:12.454Z,99101.59
2022-11-20T20:28:39.261Z,99105.88
2022-11-20T20:31:10.926Z,99100.59
2022-11-20T20:33:38.692Z,99093.56
2022-11-20T20:36:06.454Z,99101.31
2022-11-20T20:38:33.380Z,99115.50
2022-11-20T20:41:00.280Z,99086.72
2022-11-20T20:43:27.577Z,99102.28
2022-11-20T20:45:55.100Z,99097.84
2022-11-20T20:48:23.161Z,99104.66
2022-11-20T20:50:54.853Z,99097.59
2022-11-20T20:53:21.830Z,99100.50
2022-11-20T20:55:58.277Z,99090.91
2022-11-20T20:58:25.148Z,99102.84
2022-11-20T21:00:52.166Z,99097.53
2022-11-20T21:03:19.907Z,99082.84
2022-11-20T21:05:47.131Z,99080.09
2022-11-20T21:08:22.739Z,99086.06
2022-11-20T21:10:49.836Z,99086.06
2022-11-20T21:13:17.085Z,99081.75
2022-11-20T21:15:47.241Z,99090.91
2022-11-20T21:18:15.342Z,99076.75
2022-11-20T21:21:01.337Z,99067.59
2022-11-20T21:23:28.169Z,99066.63
2022-11-20T21:25:54.936Z,99078.84
2022-11-20T21:28:21.591Z,99068.28
2022-11-20T21:30:48.341Z,99067.44
2022-11-20T21:33:16.321Z,99071.78
2022-11-20T21:35:43.011Z,99063.72
2022-11-20T21:38:09.671Z,99078.00
2022-11-20T21:40:36.490Z,99078.72
2022-11-20T21:43:03.225Z,99074.97
2022-11-20T21:45:29.971Z,99082.91
2022-11-20T21:47:56.713Z,99082.06
2022-11-20T21:50:23.435Z,99080.16
2022-11-20T21:52:50.328Z,99078.44
2022-11-20T21:55:17.023Z,99081.91
2022-11-20T21:57:43.769Z,99077.50
2022-11-20T22:00:12.181Z,99071.50
2022-11-20T22:02:40.312Z,99080.38
2022-11-20T22:05:08.004Z,99083.72
2022-11-20T22:07:35.226Z,99081.09
2022-11-20T22:10:02.065Z,99070.41
2022-11-20T22:12:28.752Z,99071.38
2022-11-20T22:14:55.469Z,99072.22
2022-11-20T22:17:42.237Z,99071.25
2022-11-20T22:20:09.827Z,99082.63
2022-11-20T22:22:36.533Z,99066.78
2022-11-20T22:25:03.685Z,99067.50
2022-11-20T22:27:30.508Z,99069.03
2022-11-20T22:29:57.201Z,99069.88
2022-11-20T22:32:23.874Z,99062.81
2022-11-20T22:34:50.670Z,99066.28
2022-11-20T22:37:17.417Z,99066.28
2022-11-20T22:39:44.246Z,99063.66
2022-11-20T22:42:10.874Z,99071.41
2022-11-20T22:44:37.536Z,99064.47
2022-11-20T22:47:08.674Z,99068.78
2022-11-20T22:49:37.903Z,99065.56
2022-11-20T22:52:04.763Z,99070.59
2022-11-20T22:54:31.439Z,99055.72
2022-11-20T22:56:58.124Z,99065.56
2022-11-20T22:59:24.802Z,99059.06
2022-11-20T23:01:51.464Z,99067.94
2022-11-20T23:04:18.186Z,99056.69
2022-11-20T23:06:44.804Z,99057.38
2022-11-20T23:09:12.887Z,99058.38
2022-11-20T23:11:39.883Z,99058.38
2022-11-20T23:14:15.947Z,99056.94
2022-11-20T23:16:42.697Z,99062.81
2022-11-20T23:19:12.032Z,99056.69
2022-11-20T23:21:41.113Z,99054.03
2022-11-20T23:24:08.835Z,99066.41
2022-11-20T23:26:37.728Z,99069.88
2022-11-20T23:29:05.302Z,99060.41
2022-11-20T23:31:33.592Z,99062.38
2022-11-20T23:34:00.458Z,99070.84
2022-11-20T23:36:27.352Z,99070.84
2022-11-20T23:38:54.057Z,99051.41
2022-11-20T23:41:20.760Z,99068.09
2022-11-20T23:43:47.608Z,99078.66
2022-11-20T23:46:16.656Z,99060.84
2022-11-20T23:48:45.341Z,99074.75
2022-11-20T23:51:12.792Z,99075.59
2022-11-20T23:53:39.790Z,99080.19
2022-11-20T23:56:06.697Z,99083.50
2022-11-20T23:58:38.188Z,99077.41
